sensor_id;sensor_type;location;lat;lon;timestamp;temperature;humidity
33739;DHT22;20063;51.730;11.110;2022-09-09T00:01:33;15.60;99.90
33739;DHT22;20063;51.730;11.110;2022-09-09T00:09:57;15.70;99.90
33739;DHT22;20063;51.730;11.110;2022-09-09T00:15:19;15.80;99.90
33739;DHT22;20063;51.730;11.110;2022-09-09T00:17:55;15.80;99.90
33739;DHT22;20063;51.730;11.110;2022-09-09T00:28:25;15.70;99.90
33739;DHT22;20063;51.730;11.110;2022-09-09T00:30:52;15.70;99.90
33739;DHT22;20063;51.730;11.110;2022-09-09T00:33:20;15.60;99.90
33739;DHT22;20063;51.730;11.110;2022-09-09T00:35:50;15.60;99.90
33739;DHT22;20063;51.730;11.110;2022-09-09T00:38:27;15.60;99.90
33739;DHT22;20063;51.730;11.110;2022-09-09T00:41:03;15.60;99.90
33739;DHT22;20063;51.730;11.110;2022-09-09T00:43:35;15.60;99.90
33739;DHT22;20063;51.730;11.110;2022-09-09T00:46:23;15.70;99.90
33739;DHT22;20063;51.730;11.110;2022-09-09T00:54:25;15.70;99.90
33739;DHT22;20063;51.730;11.110;2022-09-09T01:02:21;15.60;99.90
33739;DHT22;20063;51.730;11.110;2022-09-09T01:04:50;15.60;99.90
33739;DHT22;20063;51.730;11.110;2022-09-09T01:07:18;15.60;99.90
33739;DHT22;20063;51.730;11.110;2022-09-09T01:09:57;15.60;99.90
33739;DHT22;20063;51.730;11.110;2022-09-09T01:12:30;15.60;99.90
33739;DHT22;20063;51.730;11.110;2022-09-09T01:15:22;15.60;99.90
33739;DHT22;20063;51.730;11.110;2022-09-09T01:20:55;15.60;99.90
33739;DHT22;20063;51.730;11.110;2022-09-09T01:26:34;15.60;99.90
33739;DHT22;20063;51.730;11.110;2022-09-09T01:29:00;15.60;99.90
33739;DHT22;20063;51.730;11.110;2022-09-09T01:33:54;15.50;99.90
33739;DHT22;20063;51.730;11.110;2022-09-09T01:36:33;15.50;99.90
33739;DHT22;20063;51.730;11.110;2022-09-09T01:39:01;15.60;99.90
33739;DHT22;20063;51.730;11.110;2022-09-09T01:41:27;15.50;99.90
33739;DHT22;20063;51.730;11.110;2022-09-09T01:43:58;15.50;99.90
33739;DHT22;20063;51.730;11.110;2022-09-09T01:46:24;15.50;99.90
33739;DHT22;20063;51.730;11.110;2022-09-09T01:48:51;15.50;99.90
33739;DHT22;20063;51.730;11.110;2022-09-09T01:51:17;15.50;99.90
33739;DHT22;20063;51.730;11.110;2022-09-09T01:53:43;15.50;99.90
33739;DHT22;20063;51.730;11.110;2022-09-09T02:04:50;15.50;99.90
33739;DHT22;20063;51.730;11.110;2022-09-09T02:10:10;15.40;99.90
33739;DHT22;20063;51.730;11.110;2022-09-09T02:12:41;15.40;99.90
33739;DHT22;20063;51.730;11.110;2022-09-09T02:15:17;15.50;99.90
33739;DHT22;20063;51.730;11.110;2022-09-09T02:17:46;15.40;99.90
33739;DHT22;20063;51.730;11.110;2022-09-09T02:20:13;15.40;99.90
33739;DHT22;20063;51.730;11.110;2022-09-09T02:22:42;15.50;99.90
33739;DHT22;20063;51.730;11.110;2022-09-09T02:25:11;15.40;99.90
33739;DHT22;20063;51.730;11.110;2022-09-09T02:27:38;15.40;99.90
33739;DHT22;20063;51.730;11.110;2022-09-09T02:30:06;15.40;99.90
33739;DHT22;20063;51.730;11.110;2022-09-09T02:32:35;15.40;99.90
33739;DHT22;20063;51.730;11.110;2022-09-09T02:35:08;15.40;99.90
33739;DHT22;20063;51.730;11.110;2022-09-09T02:37:37;15.40;99.90
33739;DHT22;20063;51.730;11.110;2022-09-09T02:40:04;15.40;99.90
33739;DHT22;20063;51.730;11.110;2022-09-09T02:42:31;15.40;99.90
33739;DHT22;20063;51.730;11.110;2022-09-09T02:44:58;15.30;99.90
33739;DHT22;20063;51.730;11.110;2022-09-09T02:47:34;15.30;99.90
33739;DHT22;20063;51.730;11.110;2022-09-09T02:52:35;15.30;99.90
33739;DHT22;20063;51.730;11.110;2022-09-09T02:55:16;15.30;99.90
33739;DHT22;20063;51.730;11.110;2022-09-09T02:57:46;15.30;99.90
33739;DHT22;20063;51.730;11.110;2022-09-09T03:00:13;15.30;99.90
33739;DHT22;20063;51.730;11.110;2022-09-09T03:02:40;15.30;99.90
33739;DHT22;20063;51.730;11.110;2022-09-09T03:05:06;15.30;99.90
33739;DHT22;20063;51.730;11.110;2022-09-09T03:07:32;15.30;99.90
33739;DHT22;20063;51.730;11.110;2022-09-09T03:09:57;15.30;99.90
33739;DHT22;20063;51.730;11.110;2022-09-09T03:12:23;15.30;99.90
33739;DHT22;20063;51.730;11.110;2022-09-09T03:14:49;15.30;99.90
33739;DHT22;20063;51.730;11.110;2022-09-09T03:17:15;15.30;99.90
33739;DHT22;20063;51.730;11.110;2022-09-09T03:19:40;15.30;99.90
33739;DHT22;20063;51.730;11.110;2022-09-09T03:22:08;15.30;99.90
33739;DHT22;20063;51.730;11.110;2022-09-09T03:24:35;15.30;99.90
33739;DHT22;20063;51.730;11.110;2022-09-09T03:27:00;15.20;99.90
33739;DHT22;20063;51.730;11.110;2022-09-09T03:29:26;15.20;99.90
33739;DHT22;20063;51.730;11.110;2022-09-09T03:31:52;15.30;99.90
33739;DHT22;20063;51.730;11.110;2022-09-09T03:34:17;15.20;99.90
33739;DHT22;20063;51.730;11.110;2022-09-09T03:36:43;15.20;99.90
33739;DHT22;20063;51.730;11.110;2022-09-09T03:39:08;15.20;99.90
33739;DHT22;20063;51.730;11.110;2022-09-09T03:41:34;15.20;99.90
33739;DHT22;20063;51.730;11.110;2022-09-09T03:43:59;15.20;99.90
33739;DHT22;20063;51.730;11.110;2022-09-09T03:46:25;15.10;99.90
33739;DHT22;20063;51.730;11.110;2022-09-09T03:48:51;15.10;99.90
33739;DHT22;20063;51.730;11.110;2022-09-09T03:51:18;15.10;99.90
33739;DHT22;20063;51.730;11.110;2022-09-09T03:53:44;15.10;99.90
33739;DHT22;20063;51.730;11.110;2022-09-09T03:56:10;15.10;99.90
33739;DHT22;20063;51.730;11.110;2022-09-09T03:58:38;15.10;99.90
33739;DHT22;20063;51.730;11.110;2022-09-09T04:01:10;15.10;99.90
33739;DHT22;20063;51.730;11.110;2022-09-09T04:03:36;15.10;99.90
33739;DHT22;20063;51.730;11.110;2022-09-09T04:06:03;15.10;99.90
33739;DHT22;20063;51.730;11.110;2022-09-09T04:08:29;15.10;99.90
33739;DHT22;20063;51.730;11.110;2022-09-09T04:10:58;15.10;99.90
33739;DHT22;20063;51.730;11.110;2022-09-09T04:13:25;15.10;99.90
33739;DHT22;20063;51.730;11.110;2022-09-09T04:15:57;15.10;99.90
33739;DHT22;20063;51.730;11.110;2022-09-09T04:18:24;15.10;99.90
33739;DHT22;20063;51.730;11.110;2022-09-09T04:20:51;15.00;99.90
33739;DHT22;20063;51.730;11.110;2022-09-09T04:23:17;15.00;99.90
33739;DHT22;20063;51.730;11.110;2022-09-09T04:25:47;15.00;99.90
33739;DHT22;20063;51.730;11.110;2022-09-09T04:28:14;15.00;99.90
33739;DHT22;20063;51.730;11.110;2022-09-09T04:30:41;15.00;99.90
33739;DHT22;20063;51.730;11.110;2022-09-09T04:33:07;15.00;99.90
33739;DHT22;20063;51.730;11.110;2022-09-09T04:35:33;15.00;99.90
33739;DHT22;20063;51.730;11.110;2022-09-09T04:37:58;14.90;99.90
33739;DHT22;20063;51.730;11.110;2022-09-09T04:40:25;15.00;99.90
33739;DHT22;20063;51.730;11.110;2022-09-09T04:42:51;15.00;99.90
33739;DHT22;20063;51.730;11.110;2022-09-09T04:45:17;14.90;99.90
33739;DHT22;20063;51.730;11.110;2022-09-09T04:47:43;14.90;99.90
33739;DHT22;20063;51.730;11.110;2022-09-09T04:50:09;14.90;99.90
33739;DHT22;20063;51.730;11.110;2022-09-09T04:52:35;14.90;99.90
33739;DHT22;20063;51.730;11.110;2022-09-09T04:55:01;14.90;99.90
33739;DHT22;20063;51.730;11.110;2022-09-09T04:57:27;14.90;99.90
33739;DHT22;20063;51.730;11.110;2022-09-09T04:59:54;14.90;99.90
33739;DHT22;20063;51.730;11.110;2022-09-09T05:02:19;14.90;99.90
33739;DHT22;20063;51.730;11.110;2022-09-09T05:04:45;14.90;99.90
33739;DHT22;20063;51.730;11.110;2022-09-09T05:07:10;14.90;99.90
33739;DHT22;20063;51.730;11.110;2022-09-09T05:09:36;14.90;99.90
33739;DHT22;20063;51.730;11.110;2022-09-09T05:12:02;15.00;99.90
33739;DHT22;20063;51.730;11.110;2022-09-09T05:14:28;15.00;99.90
33739;DHT22;20063;51.730;11.110;2022-09-09T05:16:55;15.00;99.90
33739;DHT22;20063;51.730;11.110;2022-09-09T05:19:21;15.00;99.90
33739;DHT22;20063;51.730;11.110;2022-09-09T05:21:47;15.00;99.90
33739;DHT22;20063;51.730;11.110;2022-09-09T05:24:12;15.00;99.90
33739;DHT22;20063;51.730;11.110;2022-09-09T05:26:38;15.10;99.90
33739;DHT22;20063;51.730;11.110;2022-09-09T05:29:04;15.10;99.90
33739;DHT22;20063;51.730;11.110;2022-09-09T05:31:30;15.10;99.90
33739;DHT22;20063;51.730;11.110;2022-09-09T05:33:56;15.10;99.90
33739;DHT22;20063;51.730;11.110;2022-09-09T05:36:22;15.10;99.90
33739;DHT22;20063;51.730;11.110;2022-09-09T05:38:49;15.10;99.90
33739;DHT22;20063;51.730;11.110;2022-09-09T05:41:15;15.10;99.90
33739;DHT22;20063;51.730;11.110;2022-09-09T05:43:41;15.10;99.90
33739;DHT22;20063;51.730;11.110;2022-09-09T05:48:44;15.10;99.90
33739;DHT22;20063;51.730;11.110;2022-09-09T05:51:15;15.10;99.90
33739;DHT22;20063;51.730;11.110;2022-09-09T05:53:42;15.10;99.90
33739;DHT22;20063;51.730;11.110;2022-09-09T05:56:10;15.10;99.90
33739;DHT22;20063;51.730;11.110;2022-09-09T05:58:37;15.10;99.90
33739;DHT22;20063;51.730;11.110;2022-09-09T06:01:17;15.10;99.90
33739;DHT22;20063;51.730;11.110;2022-09-09T06:03:44;15.10;99.90
33739;DHT22;20063;51.730;11.110;2022-09-09T06:06:12;15.20;99.90
33739;DHT22;20063;51.730;11.110;2022-09-09T06:08:41;15.20;99.90
33739;DHT22;20063;51.730;11.110;2022-09-09T06:11:15;15.20;99.90
33739;DHT22;20063;51.730;11.110;2022-09-09T06:13:41;15.20;99.90
33739;DHT22;20063;51.730;11.110;2022-09-09T06:16:11;15.20;99.90
33739;DHT22;20063;51.730;11.110;2022-09-09T06:18:40;15.30;99.90
33739;DHT22;20063;51.730;11.110;2022-09-09T06:21:11;15.30;99.90
33739;DHT22;20063;51.730;11.110;2022-09-09T06:23:39;15.30;99.90
33739;DHT22;20063;51.730;11.110;2022-09-09T06:26:11;15.30;99.90
33739;DHT22;20063;51.730;11.110;2022-09-09T06:28:37;15.30;99.90
33739;DHT22;20063;51.730;11.110;2022-09-09T06:31:05;15.30;99.90
33739;DHT22;20063;51.730;11.110;2022-09-09T06:33:32;15.40;99.90
33739;DHT22;20063;51.730;11.110;2022-09-09T06:36:01;15.50;99.90
33739;DHT22;20063;51.730;11.110;2022-09-09T06:38:27;15.60;99.90
33739;DHT22;20063;51.730;11.110;2022-09-09T06:40:59;15.70;99.90
33739;DHT22;20063;51.730;11.110;2022-09-09T06:43:25;15.70;99.90
33739;DHT22;20063;51.730;11.110;2022-09-09T06:45:56;15.80;99.90
33739;DHT22;20063;51.730;11.110;2022-09-09T06:48:22;15.90;99.90
33739;DHT22;20063;51.730;11.110;2022-09-09T06:50:47;15.90;99.90
33739;DHT22;20063;51.730;11.110;2022-09-09T06:53:17;15.90;99.90
33739;DHT22;20063;51.730;11.110;2022-09-09T06:55:45;15.90;99.90
33739;DHT22;20063;51.730;11.110;2022-09-09T06:58:11;15.90;99.90
33739;DHT22;20063;51.730;11.110;2022-09-09T07:00:36;15.90;99.90
33739;DHT22;20063;51.730;11.110;2022-09-09T07:03:05;15.90;99.90
33739;DHT22;20063;51.730;11.110;2022-09-09T07:05:31;16.00;99.90
33739;DHT22;20063;51.730;11.110;2022-09-09T07:07:57;16.00;99.90
33739;DHT22;20063;51.730;11.110;2022-09-09T07:10:24;16.00;99.90
33739;DHT22;20063;51.730;11.110;2022-09-09T07:12:52;16.00;99.90
33739;DHT22;20063;51.730;11.110;2022-09-09T07:15:19;16.00;99.90
33739;DHT22;20063;51.730;11.110;2022-09-09T07:17:44;16.10;99.90
33739;DHT22;20063;51.730;11.110;2022-09-09T07:20:11;16.10;99.90
33739;DHT22;20063;51.730;11.110;2022-09-09T07:22:37;16.20;99.90
33739;DHT22;20063;51.730;11.110;2022-09-09T07:25:03;16.20;99.90
33739;DHT22;20063;51.730;11.110;2022-09-09T07:27:29;16.20;99.90
33739;DHT22;20063;51.730;11.110;2022-09-09T07:29:55;16.20;99.90
33739;DHT22;20063;51.730;11.110;2022-09-09T07:32:22;16.20;99.90
33739;DHT22;20063;51.730;11.110;2022-09-09T07:34:48;16.30;99.90
33739;DHT22;20063;51.730;11.110;2022-09-09T07:37:15;16.40;99.90
33739;DHT22;20063;51.730;11.110;2022-09-09T07:39:41;16.40;99.90
33739;DHT22;20063;51.730;11.110;2022-09-09T07:42:07;16.40;99.90
33739;DHT22;20063;51.730;11.110;2022-09-09T07:44:33;16.40;99.90
33739;DHT22;20063;51.730;11.110;2022-09-09T07:47:01;16.40;99.90
33739;DHT22;20063;51.730;11.110;2022-09-09T07:49:27;16.50;99.90
33739;DHT22;20063;51.730;11.110;2022-09-09T07:51:53;16.50;99.90
33739;DHT22;20063;51.730;11.110;2022-09-09T07:54:19;16.50;99.90
33739;DHT22;20063;51.730;11.110;2022-09-09T07:56:46;16.60;99.90
33739;DHT22;20063;51.730;11.110;2022-09-09T07:59:12;16.60;99.90
33739;DHT22;20063;51.730;11.110;2022-09-09T08:01:44;16.60;99.90
33739;DHT22;20063;51.730;11.110;2022-09-09T08:04:13;16.60;99.90
33739;DHT22;20063;51.730;11.110;2022-09-09T08:07:02;16.70;99.90
33739;DHT22;20063;51.730;11.110;2022-09-09T08:09:28;16.80;99.90
33739;DHT22;20063;51.730;11.110;2022-09-09T08:11:55;16.80;99.90
33739;DHT22;20063;51.730;11.110;2022-09-09T08:14:22;17.00;99.90
33739;DHT22;20063;51.730;11.110;2022-09-09T08:16:49;17.00;99.90
33739;DHT22;20063;51.730;11.110;2022-09-09T08:19:16;17.10;99.90
33739;DHT22;20063;51.730;11.110;2022-09-09T08:21:43;17.20;99.90
33739;DHT22;20063;51.730;11.110;2022-09-09T08:24:10;17.30;99.90
33739;DHT22;20063;51.730;11.110;2022-09-09T08:26:38;17.40;99.90
33739;DHT22;20063;51.730;11.110;2022-09-09T08:29:05;17.50;99.90
33739;DHT22;20063;51.730;11.110;2022-09-09T08:31:39;17.50;99.90
33739;DHT22;20063;51.730;11.110;2022-09-09T08:34:06;17.60;99.90
33739;DHT22;20063;51.730;11.110;2022-09-09T08:36:39;17.60;99.90
33739;DHT22;20063;51.730;11.110;2022-09-09T08:39:08;17.80;99.90
33739;DHT22;20063;51.730;11.110;2022-09-09T08:44:32;18.00;99.90
33739;DHT22;20063;51.730;11.110;2022-09-09T08:47:48;18.00;99.90
33739;DHT22;20063;51.730;11.110;2022-09-09T08:57:52;18.00;99.90
33739;DHT22;20063;51.730;11.110;2022-09-09T09:00:19;17.90;99.90
33739;DHT22;20063;51.730;11.110;2022-09-09T09:03:04;17.90;99.90
33739;DHT22;20063;51.730;11.110;2022-09-09T09:05:37;17.90;99.90
33739;DHT22;20063;51.730;11.110;2022-09-09T09:08:35;17.90;99.90
33739;DHT22;20063;51.730;11.110;2022-09-09T09:11:04;18.00;99.90
33739;DHT22;20063;51.730;11.110;2022-09-09T09:14:15;18.00;99.90
33739;DHT22;20063;51.730;11.110;2022-09-09T09:17:05;18.10;99.90
33739;DHT22;20063;51.730;11.110;2022-09-09T09:19:33;18.30;99.90
33739;DHT22;20063;51.730;11.110;2022-09-09T09:22:14;18.40;99.90
33739;DHT22;20063;51.730;11.110;2022-09-09T09:25:46;18.50;99.90
33739;DHT22;20063;51.730;11.110;2022-09-09T09:27:59;18.60;99.90
33739;DHT22;20063;51.730;11.110;2022-09-09T09:30:36;18.80;99.90
33739;DHT22;20063;51.730;11.110;2022-09-09T09:35:42;19.00;99.90
33739;DHT22;20063;51.730;11.110;2022-09-09T09:38:35;19.10;99.90
33739;DHT22;20063;51.730;11.110;2022-09-09T09:41:01;19.20;99.90
33739;DHT22;20063;51.730;11.110;2022-09-09T09:43:32;19.20;99.90
33739;DHT22;20063;51.730;11.110;2022-09-09T09:45:58;19.30;99.90
33739;DHT22;20063;51.730;11.110;2022-09-09T09:48:25;19.40;99.90
33739;DHT22;20063;51.730;11.110;2022-09-09T09:50:56;19.40;99.90
33739;DHT22;20063;51.730;11.110;2022-09-09T09:53:28;19.40;99.90
33739;DHT22;20063;51.730;11.110;2022-09-09T09:56:01;19.50;99.90
33739;DHT22;20063;51.730;11.110;2022-09-09T09:58:30;19.40;99.90
33739;DHT22;20063;51.730;11.110;2022-09-09T10:00:59;19.40;99.90
33739;DHT22;20063;51.730;11.110;2022-09-09T10:03:31;19.40;99.90
33739;DHT22;20063;51.730;11.110;2022-09-09T10:05:57;19.40;99.90
33739;DHT22;20063;51.730;11.110;2022-09-09T10:08:24;19.40;99.90
33739;DHT22;20063;51.730;11.110;2022-09-09T10:13:57;19.60;99.90
33739;DHT22;20063;51.730;11.110;2022-09-09T10:16:47;19.60;99.90
33739;DHT22;20063;51.730;11.110;2022-09-09T10:19:29;19.60;99.90
33739;DHT22;20063;51.730;11.110;2022-09-09T10:29:56;20.10;99.90
33739;DHT22;20063;51.730;11.110;2022-09-09T10:35:31;20.30;99.90
33739;DHT22;20063;51.730;11.110;2022-09-09T10:38:19;20.20;99.90
33739;DHT22;20063;51.730;11.110;2022-09-09T10:41:00;20.20;99.90
33739;DHT22;20063;51.730;11.110;2022-09-09T10:43:56;20.20;99.90
33739;DHT22;20063;51.730;11.110;2022-09-09T10:46:50;20.20;99.90
33739;DHT22;20063;51.730;11.110;2022-09-09T10:49:47;20.20;99.90
33739;DHT22;20063;51.730;11.110;2022-09-09T10:52:38;20.10;99.90
33739;DHT22;20063;51.730;11.110;2022-09-09T10:55:18;20.00;99.90
33739;DHT22;20063;51.730;11.110;2022-09-09T10:57:47;19.90;99.90
33739;DHT22;20063;51.730;11.110;2022-09-09T11:00:20;19.80;99.90
33739;DHT22;20063;51.730;11.110;2022-09-09T11:02:58;19.80;99.90
33739;DHT22;20063;51.730;11.110;2022-09-09T11:05:40;20.00;99.90
33739;DHT22;20063;51.730;11.110;2022-09-09T11:08:13;20.10;99.90
33739;DHT22;20063;51.730;11.110;2022-09-09T11:11:04;20.10;99.90
33739;DHT22;20063;51.730;11.110;2022-09-09T11:13:46;20.20;99.90
33739;DHT22;20063;51.730;11.110;2022-09-09T11:16:29;20.30;99.90
33739;DHT22;20063;51.730;11.110;2022-09-09T11:19:04;20.30;99.90
33739;DHT22;20063;51.730;11.110;2022-09-09T11:21:41;20.40;99.90
33739;DHT22;20063;51.730;11.110;2022-09-09T11:24:23;20.50;99.90
33739;DHT22;20063;51.730;11.110;2022-09-09T11:29:47;20.60;99.90
33739;DHT22;20063;51.730;11.110;2022-09-09T11:35:23;20.80;99.90
33739;DHT22;20063;51.730;11.110;2022-09-09T11:40:46;21.10;99.90
33739;DHT22;20063;51.730;11.110;2022-09-09T11:43:24;21.10;99.90
33739;DHT22;20063;51.730;11.110;2022-09-09T11:45:53;21.20;99.90
33739;DHT22;20063;51.730;11.110;2022-09-09T11:48:27;21.10;99.90
33739;DHT22;20063;51.730;11.110;2022-09-09T11:51:11;21.00;99.90
33739;DHT22;20063;51.730;11.110;2022-09-09T11:53:52;20.90;99.90
33739;DHT22;20063;51.730;11.110;2022-09-09T11:56:44;20.80;99.90
33739;DHT22;20063;51.730;11.110;2022-09-09T11:59:25;20.70;99.90
33739;DHT22;20063;51.730;11.110;2022-09-09T12:01:59;20.70;99.90
33739;DHT22;20063;51.730;11.110;2022-09-09T12:04:33;20.50;99.90
33739;DHT22;20063;51.730;11.110;2022-09-09T12:09:57;20.50;99.90
33739;DHT22;20063;51.730;11.110;2022-09-09T12:12:28;20.40;99.90
33739;DHT22;20063;51.730;11.110;2022-09-09T12:14:57;20.30;99.90
33739;DHT22;20063;51.730;11.110;2022-09-09T12:17:26;20.20;99.90
33739;DHT22;20063;51.730;11.110;2022-09-09T12:20:20;20.20;99.90
33739;DHT22;20063;51.730;11.110;2022-09-09T12:31:51;19.80;99.90
33739;DHT22;20063;51.730;11.110;2022-09-09T12:37:27;19.90;99.90
33739;DHT22;20063;51.730;11.110;2022-09-09T12:39:59;20.00;99.90
33739;DHT22;20063;51.730;11.110;2022-09-09T12:42:26;20.30;99.90
33739;DHT22;20063;51.730;11.110;2022-09-09T12:44:56;20.40;99.90
33739;DHT22;20063;51.730;11.110;2022-09-09T12:48:10;20.50;99.90
33739;DHT22;20063;51.730;11.110;2022-09-09T12:50:21;20.50;99.90
33739;DHT22;20063;51.730;11.110;2022-09-09T12:52:49;20.50;99.90
33739;DHT22;20063;51.730;11.110;2022-09-09T12:55:24;20.50;99.90
33739;DHT22;20063;51.730;11.110;2022-09-09T12:57:51;20.50;99.90
33739;DHT22;20063;51.730;11.110;2022-09-09T13:00:18;20.40;99.90
33739;DHT22;20063;51.730;11.110;2022-09-09T13:02:54;20.40;99.90
33739;DHT22;20063;51.730;11.110;2022-09-09T13:05:26;20.50;99.90
33739;DHT22;20063;51.730;11.110;2022-09-09T13:08:04;20.60;99.90
33739;DHT22;20063;51.730;11.110;2022-09-09T13:10:33;20.80;99.90
33739;DHT22;20063;51.730;11.110;2022-09-09T13:13:00;21.00;99.90
33739;DHT22;20063;51.730;11.110;2022-09-09T13:15:28;21.20;99.90
33739;DHT22;20063;51.730;11.110;2022-09-09T13:17:59;21.20;99.90
33739;DHT22;20063;51.730;11.110;2022-09-09T13:20:26;21.30;99.90
33739;DHT22;20063;51.730;11.110;2022-09-09T13:22:53;21.30;99.90
33739;DHT22;20063;51.730;11.110;2022-09-09T13:25:26;21.20;99.90
33739;DHT22;20063;51.730;11.110;2022-09-09T13:28:03;21.10;99.90
33739;DHT22;20063;51.730;11.110;2022-09-09T13:30:30;21.10;99.90
33739;DHT22;20063;51.730;11.110;2022-09-09T13:33:22;21.10;99.90
33739;DHT22;20063;51.730;11.110;2022-09-09T13:38:21;21.50;99.90
33739;DHT22;20063;51.730;11.110;2022-09-09T13:41:04;21.60;99.90
33739;DHT22;20063;51.730;11.110;2022-09-09T13:43:43;21.70;99.90
33739;DHT22;20063;51.730;11.110;2022-09-09T13:46:34;21.80;99.90
33739;DHT22;20063;51.730;11.110;2022-09-09T13:51:49;22.10;99.90
33739;DHT22;20063;51.730;11.110;2022-09-09T13:54:18;22.10;99.90
33739;DHT22;20063;51.730;11.110;2022-09-09T13:56:45;22.00;99.90
33739;DHT22;20063;51.730;11.110;2022-09-09T13:59:12;22.00;99.90
33739;DHT22;20063;51.730;11.110;2022-09-09T14:01:39;22.10;99.90
33739;DHT22;20063;51.730;11.110;2022-09-09T14:04:04;22.20;99.90
33739;DHT22;20063;51.730;11.110;2022-09-09T14:06:35;22.20;99.90
33739;DHT22;20063;51.730;11.110;2022-09-09T14:09:02;22.20;99.90
33739;DHT22;20063;51.730;11.110;2022-09-09T14:11:28;22.00;99.90
33739;DHT22;20063;51.730;11.110;2022-09-09T14:13:53;22.00;99.90
33739;DHT22;20063;51.730;11.110;2022-09-09T14:16:19;22.00;99.90
33739;DHT22;20063;51.730;11.110;2022-09-09T14:18:45;22.10;99.90
33739;DHT22;20063;51.730;11.110;2022-09-09T14:21:11;22.20;99.90
33739;DHT22;20063;51.730;11.110;2022-09-09T14:23:37;22.20;99.90
33739;DHT22;20063;51.730;11.110;2022-09-09T14:26:04;22.20;99.90
33739;DHT22;20063;51.730;11.110;2022-09-09T14:28:29;22.20;99.90
33739;DHT22;20063;51.730;11.110;2022-09-09T14:30:59;22.30;99.90
33739;DHT22;20063;51.730;11.110;2022-09-09T14:33:24;22.40;99.90
33739;DHT22;20063;51.730;11.110;2022-09-09T14:36:04;22.40;99.90
33739;DHT22;20063;51.730;11.110;2022-09-09T14:38:31;22.40;98.50
33739;DHT22;20063;51.730;11.110;2022-09-09T14:40:56;22.50;99.10
33739;DHT22;20063;51.730;11.110;2022-09-09T14:43:24;22.50;93.10
33739;DHT22;20063;51.730;11.110;2022-09-09T14:45:49;22.50;97.20
33739;DHT22;20063;51.730;11.110;2022-09-09T14:48:17;22.50;94.20
33739;DHT22;20063;51.730;11.110;2022-09-09T14:50:43;22.50;96.50
33739;DHT22;20063;51.730;11.110;2022-09-09T14:53:09;22.50;97.50
33739;DHT22;20063;51.730;11.110;2022-09-09T14:55:36;22.50;95.80
33739;DHT22;20063;51.730;11.110;2022-09-09T14:58:02;22.40;97.10
33739;DHT22;20063;51.730;11.110;2022-09-09T15:00:28;22.50;94.20
33739;DHT22;20063;51.730;11.110;2022-09-09T15:02:54;22.50;92.00
33739;DHT22;20063;51.730;11.110;2022-09-09T15:05:21;22.40;93.80
33739;DHT22;20063;51.730;11.110;2022-09-09T15:07:46;22.30;91.40
33739;DHT22;20063;51.730;11.110;2022-09-09T15:10:14;22.30;91.60
33739;DHT22;20063;51.730;11.110;2022-09-09T15:12:39;22.20;93.50
33739;DHT22;20063;51.730;11.110;2022-09-09T15:15:07;22.30;91.10
33739;DHT22;20063;51.730;11.110;2022-09-09T15:17:34;22.30;86.90
33739;DHT22;20063;51.730;11.110;2022-09-09T15:20:04;22.30;93.10
33739;DHT22;20063;51.730;11.110;2022-09-09T15:22:31;22.30;93.40
33739;DHT22;20063;51.730;11.110;2022-09-09T15:24:57;22.20;90.90
33739;DHT22;20063;51.730;11.110;2022-09-09T15:27:23;22.20;91.90
33739;DHT22;20063;51.730;11.110;2022-09-09T15:29:49;22.30;90.70
33739;DHT22;20063;51.730;11.110;2022-09-09T15:32:15;22.30;91.00
33739;DHT22;20063;51.730;11.110;2022-09-09T15:34:41;22.20;91.20
33739;DHT22;20063;51.730;11.110;2022-09-09T15:37:10;22.20;97.10
33739;DHT22;20063;51.730;11.110;2022-09-09T15:39:38;22.20;99.90
33739;DHT22;20063;51.730;11.110;2022-09-09T15:42:04;22.20;95.50
33739;DHT22;20063;51.730;11.110;2022-09-09T15:44:29;22.20;94.90
33739;DHT22;20063;51.730;11.110;2022-09-09T15:47:03;22.30;95.80
33739;DHT22;20063;51.730;11.110;2022-09-09T15:49:28;22.20;94.20
33739;DHT22;20063;51.730;11.110;2022-09-09T15:51:56;22.30;97.70
33739;DHT22;20063;51.730;11.110;2022-09-09T15:54:24;22.20;96.10
33739;DHT22;20063;51.730;11.110;2022-09-09T15:56:54;22.20;95.80
33739;DHT22;20063;51.730;11.110;2022-09-09T15:59:22;22.20;92.20
33739;DHT22;20063;51.730;11.110;2022-09-09T16:01:48;22.30;91.90
33739;DHT22;20063;51.730;11.110;2022-09-09T16:04:17;22.30;92.10
33739;DHT22;20063;51.730;11.110;2022-09-09T16:06:52;22.40;91.50
33739;DHT22;20063;51.730;11.110;2022-09-09T16:09:18;22.40;91.30
33739;DHT22;20063;51.730;11.110;2022-09-09T16:11:44;22.50;93.20
33739;DHT22;20063;51.730;11.110;2022-09-09T16:14:09;22.40;96.40
33739;DHT22;20063;51.730;11.110;2022-09-09T16:16:36;22.40;97.00
33739;DHT22;20063;51.730;11.110;2022-09-09T16:19:07;22.40;99.90
33739;DHT22;20063;51.730;11.110;2022-09-09T16:21:45;22.40;99.90
33739;DHT22;20063;51.730;11.110;2022-09-09T16:24:15;22.40;99.90
33739;DHT22;20063;51.730;11.110;2022-09-09T16:26:43;22.40;99.90
33739;DHT22;20063;51.730;11.110;2022-09-09T16:29:13;22.50;99.90
33739;DHT22;20063;51.730;11.110;2022-09-09T16:31:39;22.60;99.70
33739;DHT22;20063;51.730;11.110;2022-09-09T16:34:06;22.70;99.90
33739;DHT22;20063;51.730;11.110;2022-09-09T16:36:34;22.70;98.00
33739;DHT22;20063;51.730;11.110;2022-09-09T16:39:08;22.70;99.30
33739;DHT22;20063;51.730;11.110;2022-09-09T16:41:34;22.80;98.00
33739;DHT22;20063;51.730;11.110;2022-09-09T16:44:03;22.90;99.90
33739;DHT22;20063;51.730;11.110;2022-09-09T16:46:30;23.10;95.00
33739;DHT22;20063;51.730;11.110;2022-09-09T16:48:57;23.10;87.50
33739;DHT22;20063;51.730;11.110;2022-09-09T16:51:29;23.00;88.80
33739;DHT22;20063;51.730;11.110;2022-09-09T16:53:57;22.70;83.00
33739;DHT22;20063;51.730;11.110;2022-09-09T16:56:25;22.60;86.30
33739;DHT22;20063;51.730;11.110;2022-09-09T16:58:53;22.30;87.40
33739;DHT22;20063;51.730;11.110;2022-09-09T17:01:20;22.10;94.10
33739;DHT22;20063;51.730;11.110;2022-09-09T17:03:46;21.70;98.80
33739;DHT22;20063;51.730;11.110;2022-09-09T17:06:13;21.50;99.90
33739;DHT22;20063;51.730;11.110;2022-09-09T17:08:39;21.30;99.90
33739;DHT22;20063;51.730;11.110;2022-09-09T17:11:14;21.10;99.90
33739;DHT22;20063;51.730;11.110;2022-09-09T17:13:43;20.90;99.90
33739;DHT22;20063;51.730;11.110;2022-09-09T17:16:10;20.70;99.90
33739;DHT22;20063;51.730;11.110;2022-09-09T17:18:36;20.50;99.90
33739;DHT22;20063;51.730;11.110;2022-09-09T17:21:06;20.30;99.90
33739;DHT22;20063;51.730;11.110;2022-09-09T17:23:35;20.00;99.90